Time;durP1;ratioP1;P1;durP2;ratioP2;P2;SDS_P1;SDS_P2;PMS_P1;PMS_P2;Temp;Humidity;BMP_temperature;BMP_pressure;BME280_temperature;BME280_humidity;BME280_pressure;Samples;Min_cycle;Max_cycle;Signal;HPM_P1;HPM_P2
2022/10/30 00:00:33;;;;;;;3.25;1.73;;;18.80;86.40;;;;;;5053286;28;20085;-74
2022/10/30 00:02:58;;;;;;;2.67;1.45;;;18.80;86.40;;;;;;5053455;28;20078;-74
2022/10/30 00:05:25;;;;;;;3.17;1.42;;;18.80;86.30;;;;;;5035628;28;20063;-75
2022/10/30 00:07:51;;;;;;;4.15;1.70;;;18.80;86.40;;;;;;5035252;28;20482;-75
2022/10/30 00:10:16;;;;;;;3.20;1.27;;;18.80;86.40;;;;;;5052010;28;20084;-74
2022/10/30 00:12:42;;;;;;;4.47;1.35;;;18.80;86.40;;;;;;5051953;28;20025;-74
2022/10/30 00:15:08;;;;;;;5.25;1.80;;;18.80;86.40;;;;;;5052187;28;20059;-74
2022/10/30 00:17:34;;;;;;;2.63;1.40;;;18.80;87.30;;;;;;5051760;28;20080;-74
2022/10/30 00:19:59;;;;;;;2.78;1.60;;;18.80;86.40;;;;;;5051837;28;20032;-74
2022/10/30 00:22:25;;;;;;;3.90;1.42;;;18.80;86.40;;;;;;5051409;28;20028;-74
2022/10/30 00:24:51;;;;;;;3.40;1.23;;;18.80;86.40;;;;;;5035196;28;20029;-74
2022/10/30 00:27:16;;;;;;;3.63;1.60;;;18.80;86.50;;;;;;5051667;28;20096;-74
2022/10/30 00:29:42;;;;;;;3.17;1.10;;;18.80;86.40;;;;;;5052915;28;20025;-74
2022/10/30 00:32:07;;;;;;;7.80;1.40;;;18.80;86.40;;;;;;5052956;28;20063;-74
2022/10/30 00:34:33;;;;;;;2.97;1.15;;;18.90;86.50;;;;;;5035089;28;20112;-74
2022/10/30 00:36:59;;;;;;;4.70;1.30;;;18.80;86.40;;;;;;5052582;28;20060;-74
2022/10/30 00:39:24;;;;;;;2.88;1.45;;;18.80;86.50;;;;;;5052806;28;20024;-74
2022/10/30 00:41:50;;;;;;;4.15;1.20;;;18.80;86.50;;;;;;5051621;28;20017;-74
2022/10/30 00:44:36;;;;;;;1.65;0.98;;;18.80;86.40;;;;;;5051504;28;20396;-74
2022/10/30 00:47:03;;;;;;;2.80;1.08;;;18.90;86.50;;;;;;5051616;28;20017;-74
2022/10/30 00:49:31;;;;;;;3.42;1.83;;;18.80;86.50;;;;;;5051430;28;20501;-74
2022/10/30 00:51:56;;;;;;;4.03;1.50;;;18.80;86.50;;;;;;5034829;28;20456;-74
2022/10/30 00:54:22;;;;;;;5.82;1.50;;;18.80;87.00;;;;;;5034655;28;20111;-75
2022/10/30 00:56:47;;;;;;;5.65;1.40;;;18.80;86.40;;;;;;5017976;28;20072;-74
2022/10/30 00:59:16;;;;;;;5.40;1.33;;;18.80;86.50;;;;;;5050741;28;20014;-74
2022/10/30 01:01:43;;;;;;;3.92;2.03;;;18.80;86.50;;;;;;5034897;28;20039;-74
2022/10/30 01:04:09;;;;;;;2.42;1.25;;;18.80;86.50;;;;;;5018345;28;20372;-74
2022/10/30 01:06:40;;;;;;;2.17;1.10;;;18.80;86.50;;;;;;5034441;28;20107;-74
2022/10/30 01:09:05;;;;;;;2.40;1.33;;;18.80;86.50;;;;;;5051271;28;20041;-75
2022/10/30 01:11:31;;;;;;;3.97;1.35;;;18.80;86.50;;;;;;5052135;28;20503;-75
2022/10/30 01:13:59;;;;;;;2.67;1.25;;;18.80;86.60;;;;;;5034646;28;20145;-75
2022/10/30 01:16:30;;;;;;;4.50;1.25;;;18.80;86.60;;;;;;5050944;28;20100;-75
2022/10/30 01:19:25;;;;;;;2.20;1.40;;;18.80;86.50;;;;;;5052219;28;20025;-75
2022/10/30 01:22:13;;;;;;;1.77;1.40;;;18.80;86.60;;;;;;5049728;28;20041;-75
2022/10/30 01:24:45;;;;;;;1.77;1.13;;;18.80;86.50;;;;;;5033755;28;20029;-74
2022/10/30 01:27:35;;;;;;;5.13;1.10;;;18.80;86.60;;;;;;5050176;28;20072;-75
2022/10/30 01:30:09;;;;;;;2.08;1.08;;;18.80;86.50;;;;;;5034195;28;20402;-74
2022/10/30 01:33:05;;;;;;;1.63;0.95;;;18.80;86.60;;;;;;5033402;28;20041;-74
2022/10/30 01:35:40;;;;;;;3.85;1.30;;;18.80;86.50;;;;;;5049528;28;20190;-74
2022/10/30 01:38:28;;;;;;;1.70;1.00;;;18.80;86.50;;;;;;5017032;28;20033;-74
2022/10/30 01:40:54;;;;;;;3.65;1.25;;;18.80;86.60;;;;;;5033239;28;20483;-74
2022/10/30 01:43:19;;;;;;;2.00;1.33;;;18.80;86.60;;;;;;5033423;28;20070;-74
2022/10/30 01:45:57;;;;;;;2.97;1.10;;;18.80;86.60;;;;;;5016553;28;20049;-74
2022/10/30 01:49:00;;;;;;;3.38;1.30;;;18.80;86.70;;;;;;5049706;28;20044;-74
2022/10/30 01:51:52;;;;;;;3.03;1.30;;;18.80;86.60;;;;;;5033295;28;20044;-74
2022/10/30 01:54:37;;;;;;;4.30;1.20;;;18.80;86.70;;;;;;5049596;28;20062;-74
2022/10/30 01:57:14;;;;;;;4.15;1.17;;;18.80;86.60;;;;;;5049750;28;20036;-74
2022/10/30 02:00:07;;;;;;;4.05;1.27;;;18.80;86.70;;;;;;5033228;28;20038;-74
2022/10/30 02:02:32;;;;;;;8.45;1.35;;;18.80;86.80;;;;;;5032728;28;20026;-74
2022/10/30 02:04:59;;;;;;;4.88;1.67;;;18.80;86.70;;;;;;5030759;28;20048;-74
2022/10/30 02:07:24;;;;;;;3.17;1.45;;;18.80;86.80;;;;;;5030868;28;20025;-75
2022/10/30 02:09:50;;;;;;;3.35;1.45;;;18.80;86.80;;;;;;5031942;28;20025;-74
2022/10/30 02:12:17;;;;;;;2.03;1.00;;;18.80;86.80;;;;;;5034133;28;20025;-74
2022/10/30 02:14:44;;;;;;;2.78;1.23;;;18.80;86.90;;;;;;5017649;28;20504;-74
2022/10/30 02:17:10;;;;;;;2.70;1.08;;;18.80;86.80;;;;;;5034214;28;20087;-75
2022/10/30 02:19:36;;;;;;;2.10;1.02;;;18.80;86.80;;;;;;5034179;28;20025;-75
2022/10/30 02:22:02;;;;;;;1.88;1.08;;;18.80;86.80;;;;;;5034114;28;20022;-75
2022/10/30 02:24:28;;;;;;;1.85;1.10;;;18.80;86.80;;;;;;5050750;28;20018;-74
2022/10/30 02:26:54;;;;;;;4.10;1.08;;;18.80;86.80;;;;;;5050572;28;20033;-74
2022/10/30 02:29:20;;;;;;;3.35;1.20;;;18.80;86.90;;;;;;5035281;28;20029;-74
2022/10/30 02:31:46;;;;;;;2.70;1.30;;;18.80;86.80;;;;;;5034955;28;20563;-74
2022/10/30 02:34:12;;;;;;;2.28;1.20;;;18.80;86.90;;;;;;5033961;28;20053;-74
2022/10/30 02:36:38;;;;;;;1.60;1.17;;;18.80;86.80;;;;;;5034903;28;20488;-74
2022/10/30 02:39:03;;;;;;;2.45;1.20;;;18.80;86.80;;;;;;5035174;28;20014;-74
2022/10/30 02:41:29;;;;;;;2.33;1.30;;;18.80;86.80;;;;;;5033915;28;20053;-74
2022/10/30 02:43:55;;;;;;;1.58;0.95;;;18.70;86.80;;;;;;5050376;28;20036;-75
2022/10/30 02:46:20;;;;;;;4.22;1.40;;;18.70;86.80;;;;;;5050269;28;20067;-74
2022/10/30 02:48:46;;;;;;;2.40;1.20;;;18.80;86.80;;;;;;5033675;28;20025;-74
2022/10/30 02:51:12;;;;;;;2.58;1.25;;;18.80;86.90;;;;;;5050502;28;20033;-74
2022/10/30 02:53:37;;;;;;;3.78;1.33;;;18.80;86.90;;;;;;5049969;28;20021;-74
2022/10/30 02:56:04;;;;;;;4.38;1.20;;;18.80;86.90;;;;;;5034669;28;20056;-75
2022/10/30 02:58:30;;;;;;;2.58;1.13;;;18.80;86.90;;;;;;5033459;28;20036;-75
2022/10/30 03:00:56;;;;;;;2.05;1.00;;;18.80;86.90;;;;;;5034405;28;20116;-75
2022/10/30 03:03:21;;;;;;;3.83;1.00;;;18.80;86.80;;;;;;5034650;28;20031;-74
2022/10/30 03:05:47;;;;;;;1.92;1.38;;;18.70;86.80;;;;;;5034493;28;20021;-74
2022/10/30 03:08:12;;;;;;;3.40;0.98;;;18.70;86.90;;;;;;5049970;28;20051;-74
2022/10/30 03:10:38;;;;;;;2.60;1.20;;;18.80;86.90;;;;;;5049716;28;20034;-74
2022/10/30 03:13:04;;;;;;;1.95;1.02;;;18.70;86.90;;;;;;5034491;28;20021;-74
2022/10/30 03:15:29;;;;;;;2.30;1.33;;;18.80;86.90;;;;;;5034245;28;20036;-74
2022/10/30 03:17:55;;;;;;;3.30;1.25;;;18.80;87.00;;;;;;5049782;28;20147;-74
2022/10/30 03:20:20;;;;;;;9.77;1.35;;;18.70;87.00;;;;;;5034198;28;20029;-74
2022/10/30 03:22:46;;;;;;;1.58;1.05;;;18.70;87.00;;;;;;5032396;28;20147;-74
2022/10/30 03:25:12;;;;;;;2.25;0.90;;;18.70;87.00;;;;;;5034296;28;20028;-74
2022/10/30 03:27:37;;;;;;;4.25;1.30;;;18.70;87.00;;;;;;5032841;28;20025;-74
2022/10/30 03:30:03;;;;;;;3.15;1.00;;;18.70;87.00;;;;;;5033961;28;20124;-74
2022/10/30 03:32:29;;;;;;;3.47;1.00;;;18.70;87.00;;;;;;5034261;28;20029;-74
2022/10/30 03:34:54;;;;;;;3.72;0.90;;;18.70;87.00;;;;;;5049276;28;20472;-74
2022/10/30 03:37:20;;;;;;;3.20;1.38;;;18.70;88.10;;;;;;5049434;28;20148;-74
2022/10/30 03:39:45;;;;;;;4.05;1.58;;;18.70;87.10;;;;;;5049286;28;20055;-74
2022/10/30 03:42:11;;;;;;;4.00;1.27;;;18.70;87.10;;;;;;5033889;28;20029;-75
2022/10/30 03:44:37;;;;;;;4.57;1.50;;;18.70;87.10;;;;;;5048933;28;20025;-75
2022/10/30 03:47:02;;;;;;;2.50;1.30;;;18.70;87.20;;;;;;5033765;28;20021;-75
2022/10/30 03:49:28;;;;;;;7.53;1.40;;;18.70;87.20;;;;;;5049199;28;20409;-75
2022/10/30 03:51:54;;;;;;;2.60;1.00;;;18.80;87.20;;;;;;5049039;28;20091;-75
2022/10/30 03:54:20;;;;;;;4.03;1.00;;;18.70;87.20;;;;;;5033536;28;20427;-75
2022/10/30 03:56:45;;;;;;;2.20;0.82;;;18.70;87.10;;;;;;5033384;28;20037;-75
2022/10/30 03:59:11;;;;;;;5.97;1.40;;;18.70;87.10;;;;;;5032246;28;20017;-75
2022/10/30 04:01:37;;;;;;;4.13;0.98;;;18.70;87.10;;;;;;5048765;28;20029;-75
2022/10/30 04:04:02;;;;;;;2.90;1.13;;;18.70;87.20;;;;;;5048855;28;20025;-74
2022/10/30 04:06:28;;;;;;;2.67;1.35;;;18.70;87.20;;;;;;5048953;28;20093;-74
2022/10/30 04:08:54;;;;;;;2.10;0.88;;;18.70;87.20;;;;;;5048662;28;20025;-74
2022/10/30 04:11:20;;;;;;;3.83;1.00;;;18.70;87.20;;;;;;5048813;28;20053;-74
2022/10/30 04:13:45;;;;;;;2.95;1.10;;;18.70;87.20;;;;;;5031836;28;20558;-74
2022/10/30 04:16:11;;;;;;;3.42;1.15;;;18.70;87.20;;;;;;5033237;28;20061;-74
2022/10/30 04:18:37;;;;;;;4.20;1.38;;;18.70;87.30;;;;;;5032070;28;20112;-74
2022/10/30 04:21:02;;;;;;;5.32;1.00;;;18.70;87.30;;;;;;5036652;28;20029;-74
2022/10/30 04:23:28;;;;;;;1.77;0.90;;;18.70;87.30;;;;;;5051835;28;20023;-74
2022/10/30 04:25:54;;;;;;;5.88;1.05;;;18.70;87.30;;;;;;5035305;28;20028;-74
2022/10/30 04:28:20;;;;;;;5.05;1.48;;;18.70;87.40;;;;;;5035390;28;20024;-74
2022/10/30 04:30:46;;;;;;;5.55;1.27;;;18.70;87.40;;;;;;5042982;28;20073;-74
2022/10/30 04:33:12;;;;;;;4.97;1.10;;;18.70;87.50;;;;;;5025366;28;20487;-74
2022/10/30 04:35:38;;;;;;;4.40;1.10;;;18.70;87.40;;;;;;5041284;28;20470;-74
2022/10/30 04:38:05;;;;;;;4.90;1.20;;;18.70;87.40;;;;;;5040349;28;20119;-74
2022/10/30 04:40:33;;;;;;;3.72;1.00;;;18.70;87.50;;;;;;5040532;28;20653;-74
2022/10/30 04:42:58;;;;;;;8.18;1.45;;;18.80;87.60;;;;;;5032042;28;20390;-74
2022/10/30 04:45:24;;;;;;;2.65;0.98;;;18.80;87.60;;;;;;5040505;28;20033;-74
2022/10/30 04:47:50;;;;;;;5.80;1.10;;;18.80;87.50;;;;;;5040508;28;20052;-74
2022/10/30 04:50:16;;;;;;;2.17;1.33;;;18.80;87.60;;;;;;5041945;28;20060;-75
2022/10/30 04:52:41;;;;;;;10.38;1.40;;;18.80;87.50;;;;;;5040117;28;20021;-75
2022/10/30 04:55:08;;;;;;;3.15;1.50;;;18.80;87.50;;;;;;5025500;28;20052;-74
2022/10/30 04:57:35;;;;;;;5.03;1.00;;;18.80;87.60;;;;;;5023464;28;20112;-74
2022/10/30 05:00:03;;;;;;;5.05;1.08;;;18.80;87.60;;;;;;5038871;28;20060;-74
2022/10/30 05:02:28;;;;;;;2.65;1.15;;;18.80;87.50;;;;;;5041591;28;20037;-74
2022/10/30 05:04:54;;;;;;;4.35;1.05;;;18.80;87.60;;;;;;5040089;28;20049;-74
2022/10/30 05:07:19;;;;;;;6.82;1.30;;;18.80;87.60;;;;;;5039897;28;20579;-74
2022/10/30 05:09:45;;;;;;;4.43;1.20;;;18.80;87.60;;;;;;5023151;28;20140;-74
2022/10/30 05:12:11;;;;;;;3.78;0.88;;;18.80;87.60;;;;;;5041744;28;20018;-74
2022/10/30 05:14:36;;;;;;;4.72;0.93;;;18.70;87.50;;;;;;5041343;28;20091;-74
2022/10/30 05:17:02;;;;;;;4.45;1.13;;;18.80;87.60;;;;;;5039339;28;20116;-74
2022/10/30 05:19:27;;;;;;;2.53;0.70;;;18.70;87.50;;;;;;5039895;28;20040;-74
2022/10/30 05:21:53;;;;;;;2.15;1.08;;;18.80;88.60;;;;;;5038014;28;20025;-74
2022/10/30 05:24:19;;;;;;;4.22;1.23;;;18.80;87.60;;;;;;5039957;28;20053;-74
2022/10/30 05:26:45;;;;;;;4.40;1.08;;;18.80;87.60;;;;;;5038902;28;20212;-74
2022/10/30 05:29:11;;;;;;;5.65;1.00;;;18.80;87.60;;;;;;5022719;28;20021;-74
2022/10/30 05:31:36;;;;;;;7.28;1.60;;;18.70;87.60;;;;;;5032215;28;20026;-74
2022/10/30 05:34:02;;;;;;;6.05;1.10;;;18.70;87.70;;;;;;5030923;28;20099;-74
2022/10/30 05:36:28;;;;;;;3.75;0.80;;;18.80;87.60;;;;;;5032284;28;20475;-74
2022/10/30 05:38:53;;;;;;;5.28;1.13;;;18.80;87.60;;;;;;5031970;28;20036;-74
2022/10/30 05:41:19;;;;;;;4.20;1.08;;;18.70;87.70;;;;;;5031846;28;20079;-74
2022/10/30 05:43:45;;;;;;;2.35;1.00;;;18.80;87.70;;;;;;5031056;28;20504;-74
2022/10/30 05:46:10;;;;;;;4.68;1.30;;;18.80;87.80;;;;;;5032601;28;20419;-74
2022/10/30 05:48:36;;;;;;;2.65;1.20;;;18.80;87.70;;;;;;5043595;28;20021;-75
2022/10/30 05:51:03;;;;;;;3.17;1.30;;;18.70;87.70;;;;;;5054798;28;20053;-74
2022/10/30 05:53:28;;;;;;;5.47;1.27;;;18.80;87.70;;;;;;5054762;28;20025;-74
2022/10/30 05:55:58;;;;;;;3.42;1.10;;;18.80;87.70;;;;;;5054132;28;20056;-74
2022/10/30 05:58:24;;;;;;;5.60;0.98;;;18.80;87.70;;;;;;5054584;28;20491;-74
2022/10/30 06:00:50;;;;;;;3.90;1.33;;;18.70;87.70;;;;;;5037994;28;20051;-74
2022/10/30 06:03:15;;;;;;;1.75;0.98;;;18.70;87.70;;;;;;5054505;28;20021;-74
2022/10/30 06:05:43;;;;;;;4.88;1.27;;;18.80;87.70;;;;;;5054328;28;20044;-74
2022/10/30 06:08:09;;;;;;;4.43;1.45;;;18.70;87.70;;;;;;5054372;28;20025;-74
2022/10/30 06:10:35;;;;;;;1.90;0.88;;;18.70;87.70;;;;;;5054300;28;20442;-74
2022/10/30 06:13:02;;;;;;;6.25;1.35;;;18.70;87.70;;;;;;5054336;28;20057;-74
2022/10/30 06:15:28;;;;;;;4.38;0.88;;;18.80;87.70;;;;;;5037799;28;20021;-74
2022/10/30 06:17:54;;;;;;;2.90;1.40;;;18.70;87.70;;;;;;5037702;28;20021;-74
2022/10/30 06:20:21;;;;;;;3.10;1.10;;;18.70;87.70;;;;;;5054103;28;20021;-74
2022/10/30 06:22:56;;;;;;;4.47;1.35;;;18.70;87.70;;;;;;5050367;28;20029;-74
2022/10/30 06:25:22;;;;;;;1.23;0.80;;;18.70;87.70;;;;;;5045967;28;20025;-75
2022/10/30 06:27:48;;;;;;;2.47;1.33;;;18.70;87.70;;;;;;5054258;28;20081;-75
2022/10/30 06:30:13;;;;;;;3.45;1.20;;;18.70;87.70;;;;;;5052447;28;20036;-75
2022/10/30 06:32:39;;;;;;;4.72;1.08;;;18.70;87.70;;;;;;5055622;28;20029;-74
2022/10/30 06:35:05;;;;;;;4.97;1.10;;;18.70;88.70;;;;;;5037498;28;20386;-74
2022/10/30 06:37:30;;;;;;;4.95;1.48;;;18.70;87.80;;;;;;5054657;28;20033;-74
2022/10/30 06:39:56;;;;;;;3.05;1.20;;;18.70;87.80;;;;;;5037299;28;20426;-74
2022/10/30 06:42:22;;;;;;;3.95;1.10;;;18.70;87.70;;;;;;5055527;28;20060;-74
2022/10/30 06:44:50;;;;;;;1.90;0.95;;;18.70;87.80;;;;;;5055410;28;20052;-75
2022/10/30 06:47:15;;;;;;;3.08;1.30;;;18.70;87.80;;;;;;5053994;28;20029;-75
2022/10/30 06:49:41;;;;;;;5.20;1.02;;;18.70;87.80;;;;;;5054010;28;20031;-74
2022/10/30 06:52:07;;;;;;;2.45;0.95;;;18.70;87.80;;;;;;5054053;28;20043;-74
2022/10/30 06:54:33;;;;;;;2.75;0.93;;;18.70;87.80;;;;;;5055097;28;20029;-75
2022/10/30 06:56:58;;;;;;;3.35;0.90;;;18.70;87.80;;;;;;5054212;28;20056;-74
2022/10/30 06:59:24;;;;;;;4.32;1.10;;;18.70;87.80;;;;;;5053964;28;20051;-74
2022/10/30 07:01:50;;;;;;;4.38;1.10;;;18.70;87.80;;;;;;5055210;28;20025;-74
2022/10/30 07:04:15;;;;;;;5.55;1.30;;;18.70;87.80;;;;;;5053678;28;20112;-74
2022/10/30 07:06:41;;;;;;;5.03;1.02;;;18.70;87.90;;;;;;5053832;28;20057;-74
2022/10/30 07:09:06;;;;;;;2.28;0.68;;;18.70;87.80;;;;;;5054617;28;20082;-74
2022/10/30 07:11:32;;;;;;;3.35;1.10;;;18.70;87.80;;;;;;5054995;28;20147;-74
2022/10/30 07:13:58;;;;;;;6.40;1.35;;;18.70;87.90;;;;;;5037432;28;20433;-75
2022/10/30 07:16:23;;;;;;;3.42;0.90;;;18.80;87.90;;;;;;5055069;28;20033;-75
2022/10/30 07:18:50;;;;;;;2.75;0.80;;;18.70;87.80;;;;;;5054448;28;20107;-75
2022/10/30 07:21:15;;;;;;;4.97;0.90;;;18.70;87.90;;;;;;5053243;28;20060;-74
2022/10/30 07:23:41;;;;;;;2.45;1.02;;;18.70;87.90;;;;;;5054436;28;20106;-74
2022/10/30 07:26:07;;;;;;;7.80;1.20;;;18.70;87.90;;;;;;5054696;28;20083;-74
2022/10/30 07:28:32;;;;;;;5.00;0.77;;;18.70;87.90;;;;;;5037042;28;20025;-74
2022/10/30 07:30:58;;;;;;;4.22;1.13;;;18.70;87.90;;;;;;5053241;28;20029;-74
2022/10/30 07:33:24;;;;;;;1.60;0.95;;;18.70;87.80;;;;;;5053334;28;20025;-74
2022/10/30 07:35:49;;;;;;;7.10;1.10;;;18.70;87.80;;;;;;5054568;28;20552;-75
2022/10/30 07:38:16;;;;;;;1.45;0.90;;;18.70;87.90;;;;;;5052997;28;20021;-74
2022/10/30 07:40:42;;;;;;;3.17;1.10;;;18.70;88.00;;;;;;5053208;28;20036;-75
2022/10/30 07:43:09;;;;;;;4.00;1.10;;;18.70;87.90;;;;;;5053086;28;20024;-75
2022/10/30 07:45:35;;;;;;;2.40;1.00;;;18.70;87.80;;;;;;5053154;28;20029;-75
2022/10/30 07:48:00;;;;;;;4.13;1.10;;;18.70;87.90;;;;;;5052769;28;20053;-75
2022/10/30 07:50:26;;;;;;;4.20;1.02;;;18.70;87.90;;;;;;5053063;28;20064;-75
2022/10/30 07:52:52;;;;;;;4.25;1.05;;;18.70;88.00;;;;;;5052734;28;20121;-74
2022/10/30 07:55:18;;;;;;;3.35;1.13;;;18.70;87.90;;;;;;5052767;28;20447;-74
2022/10/30 07:57:43;;;;;;;3.55;1.00;;;18.70;87.90;;;;;;5054133;28;20025;-74
2022/10/30 08:00:11;;;;;;;5.30;1.15;;;18.70;87.90;;;;;;5036110;28;20025;-74
2022/10/30 08:02:36;;;;;;;2.10;0.93;;;18.80;88.00;;;;;;5052713;28;20021;-75
2022/10/30 08:05:03;;;;;;;4.53;1.00;;;18.70;87.90;;;;;;5035927;28;20031;-74
2022/10/30 08:07:35;;;;;;;3.72;0.98;;;18.70;87.90;;;;;;5052502;28;20052;-74
2022/10/30 08:10:01;;;;;;;2.70;0.95;;;18.70;87.90;;;;;;5036350;28;20047;-74
2022/10/30 08:12:26;;;;;;;5.10;1.42;;;18.70;87.90;;;;;;5052712;28;20025;-74
2022/10/30 08:14:52;;;;;;;4.10;1.20;;;18.70;87.90;;;;;;5053587;28;20111;-74
2022/10/30 08:17:18;;;;;;;2.25;0.90;;;18.80;88.00;;;;;;5052274;28;20021;-74
2022/10/30 08:19:44;;;;;;;2.80;1.10;;;18.70;87.90;;;;;;5035589;28;20399;-74
2022/10/30 08:22:10;;;;;;;5.68;1.25;;;18.70;87.80;;;;;;5053495;28;20025;-74
2022/10/30 08:24:36;;;;;;;5.72;1.27;;;18.70;87.90;;;;;;5052047;28;20534;-74
2022/10/30 08:27:01;;;;;;;2.47;0.98;;;18.70;87.90;;;;;;5052256;28;20353;-74
2022/10/30 08:29:27;;;;;;;3.17;1.02;;;18.70;87.90;;;;;;5053467;28;20079;-74
2022/10/30 08:31:53;;;;;;;4.07;1.30;;;18.70;88.00;;;;;;5053532;28;20024;-75
2022/10/30 08:34:18;;;;;;;7.70;0.90;;;18.70;88.00;;;;;;5053255;28;20040;-74
2022/10/30 08:36:46;;;;;;;5.05;1.10;;;18.70;88.00;;;;;;5035610;28;20032;-74
2022/10/30 08:39:12;;;;;;;4.32;0.95;;;18.70;87.90;;;;;;5053144;28;20040;-75
2022/10/30 08:41:38;;;;;;;1.40;0.93;;;18.70;88.00;;;;;;5052084;28;20422;-75
2022/10/30 08:44:03;;;;;;;1.88;0.77;;;18.70;88.00;;;;;;5052981;28;20103;-74
2022/10/30 08:46:29;;;;;;;3.75;1.33;;;18.70;87.90;;;;;;5051851;28;20037;-75
2022/10/30 08:48:55;;;;;;;4.57;0.93;;;18.70;87.90;;;;;;5051679;28;20116;-74
2022/10/30 08:51:20;;;;;;;6.55;1.65;;;18.70;87.90;;;;;;5053015;28;20025;-74
2022/10/30 08:53:49;;;;;;;5.93;1.25;;;18.70;87.90;;;;;;5052188;28;20510;-74
2022/10/30 08:56:16;;;;;;;4.90;1.20;;;18.70;87.90;;;;;;5035066;28;20049;-74
2022/10/30 08:58:41;;;;;;;8.02;1.27;;;18.70;87.90;;;;;;5051876;28;20108;-74
2022/10/30 09:01:07;;;;;;;2.15;0.77;;;18.70;87.90;;;;;;5053005;28;20096;-74
2022/10/30 09:03:32;;;;;;;3.13;0.90;;;18.70;87.80;;;;;;5051609;28;20479;-74
2022/10/30 09:05:58;;;;;;;5.65;0.88;;;18.70;87.80;;;;;;5052908;28;20078;-74
2022/10/30 09:08:24;;;;;;;1.70;0.90;;;18.70;87.90;;;;;;5034726;28;20058;-74
2022/10/30 09:10:54;;;;;;;5.55;1.23;;;18.70;87.90;;;;;;5051853;28;20036;-74
2022/10/30 09:13:20;;;;;;;11.02;1.02;;;18.70;87.90;;;;;;5035133;28;20134;-74
2022/10/30 09:15:46;;;;;;;3.75;1.00;;;18.70;88.00;;;;;;5052652;28;20051;-74
2022/10/30 09:18:11;;;;;;;4.07;1.08;;;18.70;88.00;;;;;;5052300;28;20036;-75
2022/10/30 09:20:37;;;;;;;3.53;0.70;;;18.70;87.90;;;;;;5050917;28;20029;-75
2022/10/30 09:23:03;;;;;;;4.40;1.05;;;18.70;87.90;;;;;;5051420;28;20021;-75
2022/10/30 09:25:28;;;;;;;4.40;0.90;;;18.70;88.00;;;;;;5051742;28;20354;-75
2022/10/30 09:27:54;;;;;;;4.03;0.93;;;18.70;88.00;;;;;;5052869;28;20035;-74
2022/10/30 09:30:20;;;;;;;2.13;0.90;;;18.70;88.00;;;;;;5051112;28;20087;-74
2022/10/30 09:32:45;;;;;;;2.53;0.90;;;18.70;88.00;;;;;;5051061;28;20025;-74
2022/10/30 09:35:11;;;;;;;2.30;0.90;;;18.70;88.00;;;;;;5051296;28;20387;-74
2022/10/30 09:37:37;;;;;;;4.97;1.10;;;18.70;88.00;;;;;;5034594;28;20060;-74
2022/10/30 09:40:04;;;;;;;1.90;0.82;;;18.70;88.00;;;;;;5034910;28;20475;-74
2022/10/30 09:42:45;;;;;;;4.13;0.80;;;18.70;89.00;;;;;;5034876;28;20045;-74
2022/10/30 09:45:20;;;;;;;2.47;1.20;;;18.70;88.00;;;;;;5051456;28;20086;-75
2022/10/30 09:48:24;;;;;;;2.47;1.10;;;18.70;88.00;;;;;;5051157;28;20104;-75
2022/10/30 09:51:25;;;;;;;3.90;0.98;;;18.70;88.00;;;;;;5052068;28;20076;-74
2022/10/30 09:53:54;;;;;;;2.50;0.85;;;18.70;87.80;;;;;;5036074;28;20056;-73
2022/10/30 09:56:35;;;;;;;3.92;0.90;;;18.70;86.20;;;;;;5050145;28;20045;-74
2022/10/30 09:59:19;;;;;;;2.60;0.95;;;18.60;84.90;;;;;;5032394;28;20529;-73
2022/10/30 10:01:52;;;;;;;4.40;0.73;;;18.60;84.70;;;;;;5050074;28;20044;-74
2022/10/30 10:04:23;;;;;;;;;;;18.60;84.70;;;;;;5049158;28;20521;-74
2022/10/30 10:07:01;;;;;;;3.03;0.90;;;18.60;84.90;;;;;;5050170;28;19905;-74
2022/10/30 10:09:28;;;;;;;3.95;0.75;;;18.60;84.70;;;;;;5033919;28;20029;-73
2022/10/30 10:11:58;;;;;;;3.63;0.88;;;18.50;84.70;;;;;;5021305;28;20016;-82
2022/10/30 10:14:43;;;;;;;5.60;1.02;;;18.60;84.80;;;;;;5029692;28;20028;-82
2022/10/30 10:17:33;;;;;;;6.93;0.95;;;18.70;84.50;;;;;;5013120;28;20033;-83
2022/10/30 10:19:59;;;;;;;4.80;1.05;;;18.80;84.20;;;;;;5031196;28;20028;-81
2022/10/30 10:22:34;;;;;;;3.33;1.13;;;18.80;83.70;;;;;;5041323;28;20021;-82
2022/10/30 10:24:59;;;;;;;7.47;1.25;;;18.90;83.50;;;;;;5049446;28;20024;-82
2022/10/30 10:27:29;;;;;;;4.57;0.85;;;18.90;83.20;;;;;;5049680;28;20025;-82
2022/10/30 10:30:19;;;;;;;4.35;0.85;;;19.00;83.10;;;;;;5032758;28;20029;-83
2022/10/30 10:33:21;;;;;;;3.55;0.90;;;19.00;82.80;;;;;;5033748;28;20075;-84
2022/10/30 10:36:02;;;;;;;3.75;0.85;;;19.10;82.60;;;;;;5053160;28;20025;-82
2022/10/30 10:38:33;;;;;;;4.45;0.90;;;19.10;82.50;;;;;;5052792;28;20021;-82
2022/10/30 10:41:43;;;;;;;5.05;1.10;;;19.20;82.10;;;;;;5053132;28;20033;-84
2022/10/30 10:44:36;;;;;;;5.35;0.95;;;19.20;82.00;;;;;;5036405;28;20039;-85
2022/10/30 10:47:26;;;;;;;3.50;1.00;;;19.20;81.70;;;;;;5053129;28;20033;-83
2022/10/30 10:50:06;;;;;;;5.32;0.85;;;19.30;81.60;;;;;;5054102;28;20025;-83
2022/10/30 10:52:53;;;;;;;6.43;0.98;;;19.30;81.60;;;;;;5053957;28;20107;-84
2022/10/30 10:55:26;;;;;;;4.13;1.20;;;19.40;81.40;;;;;;5033370;28;20045;-83
2022/10/30 10:57:52;;;;;;;2.60;1.00;;;19.40;81.10;;;;;;5037144;28;20071;-83
2022/10/30 11:00:19;;;;;;;3.50;1.02;;;19.40;81.10;;;;;;5052556;28;20021;-87
2022/10/30 11:03:05;;;;;;;2.28;0.75;;;19.40;81.10;;;;;;5052678;28;20032;-85
2022/10/30 11:05:59;;;;;;;4.38;1.02;;;19.50;80.90;;;;;;5052762;28;20013;-84
2022/10/30 11:08:28;;;;;;;6.38;1.15;;;19.50;80.70;;;;;;5052552;28;20078;-79
2022/10/30 11:11:02;;;;;;;4.80;0.90;;;19.50;80.80;;;;;;5052430;28;20106;-85
2022/10/30 11:13:30;;;;;;;1.40;0.63;;;19.50;80.60;;;;;;5036301;28;20032;-85
2022/10/30 11:15:59;;;;;;;7.93;1.58;;;19.50;80.40;;;;;;5036203;28;20027;-87
2022/10/30 11:18:24;;;;;;;6.03;1.10;;;19.60;80.50;;;;;;5052068;28;20032;-82
2022/10/30 11:21:00;;;;;;;4.68;1.08;;;19.60;80.70;;;;;;5069792;28;20021;-83
2022/10/30 11:23:33;;;;;;;1.70;0.90;;;19.60;80.50;;;;;;5052417;28;20497;-82
2022/10/30 11:26:00;;;;;;;3.30;1.25;;;19.60;80.40;;;;;;5052312;28;20086;-83
2022/10/30 11:28:47;;;;;;;3.40;0.90;;;19.60;80.30;;;;;;5035702;28;20039;-83
2022/10/30 11:31:33;;;;;;;3.78;1.00;;;19.60;80.00;;;;;;5053394;28;20028;-83
2022/10/30 11:34:01;;;;;;;2.95;0.73;;;19.70;80.10;;;;;;5036471;28;20418;-82
2022/10/30 11:36:26;;;;;;;4.15;1.02;;;19.70;80.00;;;;;;5051988;28;20021;-83
2022/10/30 11:38:52;;;;;;;3.28;0.90;;;19.70;79.90;;;;;;5053113;28;20095;-83
2022/10/30 11:41:18;;;;;;;5.68;0.88;;;19.70;79.90;;;;;;5035315;28;20078;-83
2022/10/30 11:43:43;;;;;;;4.15;0.70;;;19.70;79.70;;;;;;5034702;28;20075;-78
2022/10/30 11:46:11;;;;;;;7.07;1.15;;;19.70;79.70;;;;;;5051008;28;20118;-78
2022/10/30 11:48:38;;;;;;;5.20;0.82;;;19.70;79.50;;;;;;5034666;28;20479;-78
2022/10/30 11:51:04;;;;;;;3.20;0.90;;;19.70;79.50;;;;;;5034483;28;20367;-77
2022/10/30 11:53:38;;;;;;;4.10;0.85;;;19.80;79.40;;;;;;5050847;28;20029;-77
2022/10/30 11:56:20;;;;;;;2.17;0.47;;;19.80;79.10;;;;;;5034999;28;20059;-77
2022/10/30 11:58:51;;;;;;;3.88;1.23;;;19.80;79.40;;;;;;5035425;28;20111;-78
2022/10/30 12:01:26;;;;;;;3.92;0.80;;;19.80;79.10;;;;;;5034632;28;20017;-78
2022/10/30 12:03:55;;;;;;;4.28;0.95;;;19.80;79.10;;;;;;5050691;28;20422;-77
2022/10/30 12:06:28;;;;;;;2.85;0.80;;;19.80;79.00;;;;;;5051726;28;20095;-77
2022/10/30 12:09:03;;;;;;;;;;;19.80;78.90;;;;;;5051066;28;20028;-78
2022/10/30 12:11:32;;;;;;;3.50;0.90;;;19.80;78.60;;;;;;5050183;28;19908;-77
2022/10/30 12:13:58;;;;;;;4.75;0.70;;;19.80;78.80;;;;;;5034524;28;20024;-78
2022/10/30 12:16:24;;;;;;;3.03;0.73;;;19.90;78.60;;;;;;5017267;28;20029;-77
2022/10/30 12:19:13;;;;;;;2.85;0.80;;;19.80;78.70;;;;;;5035411;28;20028;-79
2022/10/30 12:21:42;;;;;;;6.07;0.77;;;19.90;78.60;;;;;;5046477;28;20501;-78
2022/10/30 12:24:20;;;;;;;4.22;0.80;;;19.90;78.50;;;;;;5034022;28;20035;-78
2022/10/30 12:26:47;;;;;;;3.00;0.80;;;19.90;78.60;;;;;;5034670;28;20103;-77
2022/10/30 12:29:15;;;;;;;2.05;0.60;;;19.90;78.50;;;;;;5033911;28;20025;-77
2022/10/30 12:31:52;;;;;;;2.00;0.90;;;19.90;78.40;;;;;;5033457;28;20387;-77
2022/10/30 12:34:26;;;;;;;3.78;0.88;;;19.90;78.40;;;;;;5034424;28;20521;-78
2022/10/30 12:37:02;;;;;;;3.95;1.00;;;19.90;78.40;;;;;;5050146;28;20112;-78
2022/10/30 12:39:46;;;;;;;3.50;1.15;;;19.90;78.30;;;;;;5034490;28;20078;-79
2022/10/30 12:42:14;;;;;;;2.00;0.63;;;19.90;78.30;;;;;;5050300;28;20036;-78
2022/10/30 12:44:42;;;;;;;2.40;0.60;;;19.90;78.30;;;;;;5033915;28;20020;-79
2022/10/30 12:47:26;;;;;;;1.95;1.08;;;19.90;78.40;;;;;;5033729;28;20109;-78
2022/10/30 12:49:55;;;;;;;4.75;0.82;;;20.00;78.20;;;;;;5050016;28;20013;-78
2022/10/30 12:52:36;;;;;;;4.68;0.70;;;20.00;78.40;;;;;;5049891;28;20028;-77
2022/10/30 12:55:41;;;;;;;4.47;0.93;;;20.00;78.30;;;;;;5048819;28;20075;-78
2022/10/30 12:58:18;;;;;;;4.20;0.88;;;20.00;78.10;;;;;;5051366;28;20041;-82